Sierra Nevada Aquatic Research Lab (SNARL) Reserve, California Weather observations

Data are for 10 minute period ending at time listed.
 Day   Time   Solar   Ave.   Ave.  Ave.  Vector  Max.   Baro.   Total    
  of    of     Rad.   Air    Rel.  Wind   Wind   Wind  Press.  Precip.   
Year   Day            Temp.  Hum.  Speed  Dir.   Gust                    
2016   (PST)  Kw/m2    F      %     mph   deg.    mph    mb.     in.     
-------------------------------------------------------------------------
  41    8:50   0.34   40.9    42    0.6    60     2.0   793.7    0.00 
  41    9:00   0.37   42.4    41    0.8     8     2.4   793.7    0.00 
  41    9:10   0.40   45.2    37    0.8   272     2.1   793.7    0.00 
  41    9:20   0.43   47.3    35    0.8    45     2.5   793.6    0.00 
  41    9:30   0.46   46.9    35    2.0     6     3.9   793.7    0.00 
  41    9:40   0.49   49.3    31    0.9   183     2.7   793.8    0.00 
  41    9:50   0.52   52.6    26    0.7    23     3.4   793.8    0.00 
  41   10:00   0.54   50.8    31    3.0    35     4.6   793.8    0.00 
  41   10:10   0.56   50.2    34    2.8    39     4.3   793.8    0.00 
  41   10:20   0.58   49.4    36    2.1    55     3.5   793.8    0.00 
  41   10:30   0.60   50.7    34    2.9    52     5.6   793.8    0.00 
  41   10:40   0.62   49.8    36    3.0    60     5.8   793.6    0.00 
  41   10:50   0.63   51.9    32    1.5    86     3.7   793.5    0.00 
  41   11:00   0.65   52.9    32    3.6    59     6.2   793.4    0.00 
  41   11:10   0.66   52.7    30    2.1    85     4.7   793.4    0.00 
  41   11:20   0.68   54.8    29    1.6    72     3.7   793.3    0.00 
  41   11:30   0.69   55.5    27    1.8    50     3.7   793.1    0.00 
  41   11:40   0.71   55.7    25    2.5    47     4.0   792.9    0.00 
  41   11:50   0.71   57.7    23    1.6    61     3.3   792.7    0.00 
  41   12:00   0.70   57.9    23    2.4     8     3.5   792.6    0.00 
  41   12:10   0.70   57.9    19    2.3    33     3.8   792.4    0.00 
  41   12:20   0.73   58.9    20    2.3    35     4.4   792.2    0.00 
  41   12:30   0.77   59.0    22    3.2    28     5.0   792.1    0.00 
  41   12:40   0.82   60.5    15    2.4    90     7.0   791.9    0.00 
  41   12:50   0.84   62.0    13    2.2    93     5.1   791.8    0.00 
  41   13:00   0.63   61.9    13    2.7    52     5.7   791.7    0.00 
  41   13:10   0.67   61.5    13    3.0    52     6.6   791.5    0.00 
  41   13:20   0.61   61.2    13    4.5    96     7.2   791.5    0.00 
  41   13:30   0.52   60.5    13    3.4    95     6.1   791.5    0.00 
  41   13:40   0.69   61.6    13    4.1    86     6.0   791.4    0.00 
  41   13:50   0.68   61.9    12    4.4    81     6.8   791.3    0.00 
  41   14:00   0.41   61.3    12    3.5    96     7.6   791.2    0.00 
  41   14:10   0.32   60.5    14    4.2    82     5.9   791.1    0.00 
  41   14:20   0.42   60.2    14    4.2    88     5.3   791.1    0.00 
  41   14:30   0.57   61.2    11    4.0   118     5.7   791.0    0.00 
  41   14:40   0.53   62.7     9    3.0   139     5.6   790.9    0.00 
  41   14:50   0.44   64.7     7    1.2   154     3.2   790.9    0.00 
  41   15:00   0.25   63.5     8    1.5   136     4.5   790.9    0.00 
  41   15:10   0.20   59.1    21    6.0   195     8.4   790.9    0.00 
  41   15:20   0.19   55.2    24    6.1   197     8.7   791.0    0.00 
  41   15:30   0.19   54.1    26    5.1   192     7.7   791.1    0.00 
  41   15:40   0.18   54.4    24    5.4   189     7.4   791.1    0.00 
  41   15:50   0.19   54.2    26    4.9   189     8.1   791.2    0.00 
  41   16:00   0.15   54.3    25    5.9   187     9.1   791.2    0.00 
  41   16:10   0.19   54.0    25    4.9   188     8.7   791.3    0.00 
  41   16:20   0.17   54.3    25    4.9   187     8.6   791.4    0.00 
  41   16:30   0.12   53.6    26    1.7   280     5.6   791.4    0.00 
  41   16:40   0.08   52.0    28    1.4   230     3.0   791.4    0.00 
  41   16:50   0.06   49.2    31    2.1   229     4.2   791.5    0.00 
  41   17:00   0.04   46.6    34    2.0   206     4.7   791.6    0.00 
  41   17:10   0.03   46.4    31    1.3   217     4.0   791.7    0.00 
  41   17:20   0.01   44.5    35    1.2   252     3.4   791.8    0.00 
  41   17:30   0.01   42.7    36    0.4   182     3.1   791.9    0.00 
  41   17:40   0.00   42.6    36    2.4   296     5.3   791.9    0.00 
  41   17:50   0.00   44.4    31    2.1   345     3.9   792.0    0.00 
  41   18:00   0.00   42.8    34    1.4   335     4.0   792.1    0.00 
  41   18:10   0.00   41.0    38    2.3   226     4.2   792.1    0.00 
  41   18:20   0.00   39.0    42    1.8   218     3.4   792.2    0.00 
  41   18:30   0.00   40.5    39    2.6   226     4.7   792.2    0.00 
  41   18:40   0.00   39.6    42    2.7   329     5.8   792.3    0.00 
  41   18:50   0.00   37.3    47    1.4   355     4.5   792.4    0.00 
  41   19:00   0.00   35.0    52    2.4   207     5.0   792.4    0.00 
  41   19:10   0.00   34.5    53    4.2   245     6.6   792.5    0.00 
  41   19:20   0.00   34.4    54    2.4   307     4.3   792.5    0.00 
  41   19:30   0.00   33.3    57    3.6   327     6.7   792.5    0.00 
  41   19:40   0.00   31.8    62    2.2   303     5.6   792.5    0.00 
  41   19:50   0.00   31.5    62    2.2   306     4.7   792.6    0.00 
  41   20:00   0.00   31.3    62    1.8   322     3.8   792.6    0.00 
  41   20:10   0.00   30.8    64    0.5    70     1.8   792.5    0.00 
  41   20:20   0.00   30.4    64    0.2    51     2.9   792.5    0.00 
  41   20:30   0.00   30.5    64    1.2   282     3.7   792.5    0.00 
  41   20:40   0.00   29.4    67    1.4   177     2.3   792.6    0.00 
  41   20:50   0.00   29.9    66    0.1    71     1.2   792.5    0.00 
  41   21:00   0.00   28.9    68    1.2   104     2.0   792.5    0.00 
  41   21:10   0.00   27.2    73    1.5   120     2.4   792.5    0.00 
  41   21:20   0.00   27.5    72    1.2   118     2.1   792.5    0.00 
  41   21:30   0.00   27.8    70    0.7   176     1.8   792.4    0.00 
  41   21:40   0.00   27.6    70    0.9   265     2.1   792.3    0.00 
  41   21:50   0.00   29.1    65    3.9   301     7.5   792.4    0.00 
  41   22:00   0.00   28.4    69    1.8   214     4.0   792.4    0.00 
  41   22:10   0.00   27.5    72    1.9   324     3.9   792.4    0.00 
  41   22:20   0.00   27.3    72    1.6   304     3.9   792.3    0.00 
  41   22:30   0.00   27.3    72    1.7   278     3.4   792.3    0.00 
  41   22:40   0.00   28.2    69    3.2   310     5.4   792.2    0.00 
  41   22:50   0.00   27.2    72    1.8   284     3.6   792.2    0.00 
  41   23:00   0.00   26.3    74    0.2   293     1.0   792.1    0.00 
  41   23:10   0.00   26.2    74    0.8   134     1.3   792.1    0.00 
  41   23:20   0.00   25.6    76    1.1   116     2.1   792.0    0.00 
  41   23:30   0.00   26.1    73    1.3   228     2.3   792.0    0.00 
  41   23:40   0.00   25.3    79    1.2   269     1.8   792.0    0.00 
  41   23:50   0.00   24.6    79    0.8   240     2.3   792.0    0.00 
  42    0:00   0.00   25.1    78    0.8   337     1.9   791.9    0.00 
  42    0:10   0.00   24.9    80    0.8   332     3.1   791.8    0.00 
  42    0:20   0.00   25.5    77    1.1   279     2.2   791.7    0.00 
  42    0:30   0.00   25.3    78    0.4   195     1.4   791.6    0.00 
  42    0:40   0.00   25.1    78    0.8   247     1.8   791.6    0.00 
  42    0:50   0.00   25.1    77    1.8   147     3.4   791.6    0.00 
  42    1:00   0.00   25.0    77    1.5   339     3.9   791.5    0.00 
  42    1:10   0.00   23.8    79    1.1   227     1.8   791.5    0.00 
  42    1:20   0.00   24.5    77    0.9   276     2.3   791.5    0.00 
  42    1:30   0.00   24.2    77    1.1   266     2.7   791.5    0.00 
  42    1:40   0.00   23.5    79    1.6   223     2.3   791.4    0.00 
  42    1:50   0.00   23.1    81    1.1   330     4.6   791.3    0.00 
  42    2:00   0.00   23.0    81    2.2   101     4.2   791.4    0.00 
  42    2:10   0.00   25.0    74    3.1   318     4.6   791.3    0.00 
  42    2:20   0.00   23.5    78    3.4   231     5.3   791.3    0.00 
  42    2:30   0.00   23.5    78    2.8   315     5.1   791.3    0.00 
  42    2:40   0.00   23.9    77    2.5   335     4.9   791.3    0.00 
  42    2:50   0.00   24.2    75    1.8   347     5.8   791.3    0.00 
  42    3:00   0.00   23.0    79    1.8   281     5.0   791.2    0.00 
  42    3:10   0.00   22.6    81    1.4   216     3.7   791.1    0.00 
  42    3:20   0.00   23.4    76    1.5   314     4.2   791.0    0.00 
  42    3:30   0.00   22.5    80    2.3    77     4.0   791.0    0.00 
  42    3:40   0.00   22.9    78    2.8   271     4.8   791.0    0.00 
  42    3:50   0.00   22.6    79    3.2   234     6.0   790.9    0.00 
  42    4:00   0.00   22.9    78    3.4   282     4.8   790.9    0.00 
  42    4:10   0.00   23.5    76    3.3   317     7.5   790.8    0.00 
  42    4:20   0.00   24.0    74    1.0   306     3.8   790.9    0.00 
  42    4:30   0.00   24.3    73    0.6   224     2.3   790.9    0.00 
  42    4:40   0.00   23.3    74    0.7   241     2.7   790.9    0.00 
  42    4:50   0.00   21.3    80    0.6   246     2.4   790.9    0.00 
  42    5:00   0.00   21.4    79    2.1   228     3.7   790.9    0.00 
  42    5:10   0.00   21.4    80    1.3   257     3.9   790.9    0.00 
  42    5:20   0.00   21.1    80    0.9   223     3.4   790.9    0.00 
  42    5:30   0.00   20.6    81    2.2   333     3.7   790.9    0.00 
  42    5:40   0.00   20.1    83    1.0   236     2.7   791.0    0.00 
  42    5:50   0.00   20.2    83    1.5   306     2.9   790.9    0.00 
  42    6:00   0.00   19.9    84    0.6   192     1.8   790.9    0.00 
  42    6:10   0.00   19.7    84    0.7   269     1.9   791.0    0.00 
  42    6:20   0.00   19.7    84    0.4    74     1.3   791.0    0.00 
  42    6:30   0.00   19.2    85    1.8   250     2.9   791.0    0.00 
  42    6:40   0.00   19.5    85    0.7   231     2.4   791.0    0.00 
  42    6:50   0.00   20.0    84    1.6   237     3.8   791.1    0.00 
  42    7:00   0.00   19.8    85    1.1   221     3.1   791.0    0.00 
  42    7:10   0.02   20.8    84    2.0   297     4.2   791.1    0.00 
  42    7:20   0.03   21.4    82    1.9   319     3.1   791.1    0.00 
  42    7:30   0.07   22.8    81    2.1   253     4.2   791.1    0.00 
  42    7:40   0.10   25.7    77    0.8   307     3.9   791.1    0.00 
  42    7:50   0.18   28.5    72    2.2   319     6.0   791.1    0.00 
  42    8:00   0.21   32.3    63    0.4     4     1.4   791.2    0.00 
  42    8:10   0.20   34.8    59    0.4   236     1.8   791.4    0.00 
  42    8:20   0.17   35.6    58    0.2   210     1.2   791.5    0.00 
  42    8:30   0.21   37.3    52    0.4   330     1.2   791.6    0.00 
  42    8:40   0.23   37.7    50    0.7    10     1.8   791.8    0.00 

Return to SNARL Reserve graphs page.


Western Regional Climate Center,wrcc@dri.edu